Airport View

Enter AWOS ICAO identifier for current METAR.

ex. KFNL

KMMV 191853Z AUTO 18005KT 10SM BKN045 OVC050 17/07 A3026 RMK AO2 SLP247 T01720072

19 Jun 2019 19:58

Frequency: 135.675

Phone: 503-434-9153

Other Area AWOS: KUAO - KSLE - KHIO - KTMK

TAF KSLE 191730Z 1918/2018 33004KT P6SM OVC035 FM192100 34008KT P6SM SCT040 FM192300 33013G21KT P6SM SKC FM200500 31007KT P6SM SKC FM200900 28005KT P6SM BKN040 FM201400 24004KT P6SM SCT025 OVC040